sensor_id;sensor_type;location;lat;lon;timestamp;pressure;altitude;pressure_sealevel;temperature;humidity
72395;BME280;60384;48.152;11.614;2023-09-19T00:01:32;95281.38;;;18.78;59.33
72395;BME280;60384;48.152;11.614;2023-09-19T00:04:33;95279.78;;;18.82;59.89
72395;BME280;60384;48.152;11.614;2023-09-19T00:07:35;95281.41;;;18.83;59.57
72395;BME280;60384;48.152;11.614;2023-09-19T00:10:37;95276.34;;;18.86;59.37
72395;BME280;60384;48.152;11.614;2023-09-19T00:13:41;95277.41;;;18.85;59.62
72395;BME280;60384;48.152;11.614;2023-09-19T00:16:43;95278.78;;;18.88;59.20
72395;BME280;60384;48.152;11.614;2023-09-19T00:19:46;95276.66;;;18.90;59.68
72395;BME280;60384;48.152;11.614;2023-09-19T00:22:52;95283.44;;;18.92;59.33
72395;BME280;60384;48.152;11.614;2023-09-19T00:25:53;95283.53;;;18.97;58.88
72395;BME280;60384;48.152;11.614;2023-09-19T00:28:59;95279.75;;;18.98;59.24
72395;BME280;60384;48.152;11.614;2023-09-19T00:32:07;95254.16;;;18.79;59.09
72395;BME280;60384;48.152;11.614;2023-09-19T00:35:09;95284.34;;;18.98;59.19
72395;BME280;60384;48.152;11.614;2023-09-19T00:38:11;95292.16;;;18.99;59.38
72395;BME280;60384;48.152;11.614;2023-09-19T00:41:19;95282.19;;;19.00;59.39
72395;BME280;60384;48.152;11.614;2023-09-19T00:44:22;95287.09;;;19.03;59.10
72395;BME280;60384;48.152;11.614;2023-09-19T00:47:25;95258.78;;;18.84;58.77
72395;BME280;60384;48.152;11.614;2023-09-19T00:50:27;95294.63;;;19.01;59.24
72395;BME280;60384;48.152;11.614;2023-09-19T00:53:30;95278.06;;;18.92;58.95
72395;BME280;60384;48.152;11.614;2023-09-19T00:56:32;95294.13;;;19.04;58.87
72395;BME280;60384;48.152;11.614;2023-09-19T00:59:54;95308.44;;;19.04;58.79
72395;BME280;60384;48.152;11.614;2023-09-19T01:02:57;95307.03;;;19.02;58.98
72395;BME280;60384;48.152;11.614;2023-09-19T01:05:59;95314.56;;;19.00;59.33
72395;BME280;60384;48.152;11.614;2023-09-19T01:09:02;95316.19;;;19.01;59.13
72395;BME280;60384;48.152;11.614;2023-09-19T01:12:06;95316.44;;;18.99;59.08
72395;BME280;60384;48.152;11.614;2023-09-19T01:15:21;95315.63;;;18.99;58.98
72395;BME280;60384;48.152;11.614;2023-09-19T01:18:34;95274.50;;;18.70;58.88
72395;BME280;60384;48.152;11.614;2023-09-19T01:21:39;95326.44;;;18.99;58.69
72395;BME280;60384;48.152;11.614;2023-09-19T01:25:12;95312.22;;;18.87;59.11
72395;BME280;60384;48.152;11.614;2023-09-19T01:28:30;95322.53;;;18.90;59.50
72395;BME280;60384;48.152;11.614;2023-09-19T01:31:40;95335.78;;;18.91;59.39
72395;BME280;60384;48.152;11.614;2023-09-19T01:34:48;95334.16;;;18.90;59.60
72395;BME280;60384;48.152;11.614;2023-09-19T01:37:51;95303.59;;;18.68;59.30
72395;BME280;60384;48.152;11.614;2023-09-19T01:41:03;95340.69;;;18.94;59.43
72395;BME280;60384;48.152;11.614;2023-09-19T01:47:35;95350.66;;;18.94;58.99
72395;BME280;60384;48.152;11.614;2023-09-19T01:50:43;95355.25;;;18.93;59.08
72395;BME280;60384;48.152;11.614;2023-09-19T01:53:51;95339.22;;;18.87;59.22
72395;BME280;60384;48.152;11.614;2023-09-19T01:57:00;95346.50;;;18.86;59.60
72395;BME280;60384;48.152;11.614;2023-09-19T02:00:07;95348.78;;;18.94;59.36
72395;BME280;60384;48.152;11.614;2023-09-19T02:03:16;95311.44;;;18.69;59.26
72395;BME280;60384;48.152;11.614;2023-09-19T02:06:19;95341.50;;;18.95;59.48
72395;BME280;60384;48.152;11.614;2023-09-19T02:09:21;95352.88;;;18.97;59.47
72395;BME280;60384;48.152;11.614;2023-09-19T02:12:25;95348.84;;;18.99;59.26
72395;BME280;60384;48.152;11.614;2023-09-19T02:15:27;95355.06;;;19.00;59.38
72395;BME280;60384;48.152;11.614;2023-09-19T02:18:31;95335.44;;;18.88;59.17
72395;BME280;60384;48.152;11.614;2023-09-19T02:21:35;95344.81;;;19.02;58.88
72395;BME280;60384;48.152;11.614;2023-09-19T02:24:37;95343.72;;;18.98;59.19
72395;BME280;60384;48.152;11.614;2023-09-19T02:27:39;95339.19;;;19.03;58.81
72395;BME280;60384;48.152;11.614;2023-09-19T02:30:42;95345.41;;;19.04;59.24
72395;BME280;60384;48.152;11.614;2023-09-19T02:33:45;95350.56;;;19.05;58.58
72395;BME280;60384;48.152;11.614;2023-09-19T02:36:48;95351.63;;;19.04;58.90
72395;BME280;60384;48.152;11.614;2023-09-19T02:39:50;95354.56;;;19.03;59.16
72395;BME280;60384;48.152;11.614;2023-09-19T02:42:52;95351.63;;;19.04;58.94
72395;BME280;60384;48.152;11.614;2023-09-19T02:45:57;95366.41;;;19.02;58.75
72395;BME280;60384;48.152;11.614;2023-09-19T02:49:00;95359.38;;;19.01;59.24
72395;BME280;60384;48.152;11.614;2023-09-19T02:52:04;95359.63;;;18.99;59.15
72395;BME280;60384;48.152;11.614;2023-09-19T02:55:08;95362.31;;;18.99;58.90
72395;BME280;60384;48.152;11.614;2023-09-19T02:58:09;95366.66;;;19.00;58.97
72395;BME280;60384;48.152;11.614;2023-09-19T03:01:12;95361.25;;;19.00;58.96
72395;BME280;60384;48.152;11.614;2023-09-19T03:04:16;95362.03;;;18.96;58.62
72395;BME280;60384;48.152;11.614;2023-09-19T03:07:22;95364.97;;;18.94;58.66
72395;BME280;60384;48.152;11.614;2023-09-19T03:10:24;95366.84;;;18.94;58.57
72395;BME280;60384;48.152;11.614;2023-09-19T03:13:26;95350.25;;;18.85;58.95
72395;BME280;60384;48.152;11.614;2023-09-19T03:16:28;95361.88;;;18.86;59.17
72395;BME280;60384;48.152;11.614;2023-09-19T03:19:34;95366.69;;;18.84;59.35
72395;BME280;60384;48.152;11.614;2023-09-19T03:22:38;95366.94;;;18.82;59.40
72395;BME280;60384;48.152;11.614;2023-09-19T03:25:40;95354.19;;;18.78;59.24
72395;BME280;60384;48.152;11.614;2023-09-19T03:28:43;95372.59;;;18.81;58.91
72395;BME280;60384;48.152;11.614;2023-09-19T03:31:47;95372.03;;;18.79;58.85
72395;BME280;60384;48.152;11.614;2023-09-19T03:34:50;95375.28;;;18.81;58.90
72395;BME280;60384;48.152;11.614;2023-09-19T03:37:52;95379.31;;;18.78;58.71
72395;BME280;60384;48.152;11.614;2023-09-19T03:40:54;95377.66;;;18.77;58.89
72395;BME280;60384;48.152;11.614;2023-09-19T03:43:56;95380.03;;;18.73;58.81
72395;BME280;60384;48.152;11.614;2023-09-19T03:46:58;95380.84;;;18.74;58.81
72395;BME280;60384;48.152;11.614;2023-09-19T03:50:03;95384.38;;;18.75;58.85
72395;BME280;60384;48.152;11.614;2023-09-19T03:53:05;95349.66;;;18.50;59.02
72395;BME280;60384;48.152;11.614;2023-09-19T03:56:08;95383.06;;;18.77;59.36
72395;BME280;60384;48.152;11.614;2023-09-19T03:59:10;95381.47;;;18.81;59.15
72395;BME280;60384;48.152;11.614;2023-09-19T04:02:12;95381.00;;;18.84;58.66
72395;BME280;60384;48.152;11.614;2023-09-19T04:05:25;95328.34;;;18.48;58.61
72395;BME280;60384;48.152;11.614;2023-09-19T04:08:27;95388.25;;;18.84;59.07
72395;BME280;60384;48.152;11.614;2023-09-19T04:11:30;95364.91;;;18.72;59.08
72395;BME280;60384;48.152;11.614;2023-09-19T04:14:32;95379.34;;;18.83;58.63
72395;BME280;60384;48.152;11.614;2023-09-19T04:17:34;95394.47;;;18.84;58.92
72395;BME280;60384;48.152;11.614;2023-09-19T04:20:37;95393.91;;;18.82;58.72
72395;BME280;60384;48.152;11.614;2023-09-19T04:23:39;95401.75;;;18.84;58.98
72395;BME280;60384;48.152;11.614;2023-09-19T04:26:41;95399.06;;;18.84;59.09
72395;BME280;60384;48.152;11.614;2023-09-19T04:29:44;95396.38;;;18.84;59.17
72395;BME280;60384;48.152;11.614;2023-09-19T04:32:46;95403.16;;;18.86;58.80
72395;BME280;60384;48.152;11.614;2023-09-19T04:35:52;95406.66;;;18.87;58.53
72395;BME280;60384;48.152;11.614;2023-09-19T04:38:54;95405.03;;;18.86;59.13
72395;BME280;60384;48.152;11.614;2023-09-19T04:41:56;95418.84;;;18.89;58.94
72395;BME280;60384;48.152;11.614;2023-09-19T04:44:59;95423.09;;;18.85;59.09
72395;BME280;60384;48.152;11.614;2023-09-19T04:48:01;95421.47;;;18.84;58.99
72395;BME280;60384;48.152;11.614;2023-09-19T04:51:05;95402.81;;;18.66;58.75
72395;BME280;60384;48.152;11.614;2023-09-19T04:54:07;95430.84;;;18.82;59.09
72395;BME280;60384;48.152;11.614;2023-09-19T04:57:10;95429.25;;;18.81;59.13
72395;BME280;60384;48.152;11.614;2023-09-19T05:00:14;95428.16;;;18.82;58.57
72395;BME280;60384;48.152;11.614;2023-09-19T05:03:17;95443.28;;;18.83;58.92
72395;BME280;60384;48.152;11.614;2023-09-19T05:06:22;95439.53;;;18.84;58.91
72395;BME280;60384;48.152;11.614;2023-09-19T05:09:30;95347.53;;;18.18;58.99
72395;BME280;60384;48.152;11.614;2023-09-19T05:12:34;95425.69;;;18.63;58.54
72395;BME280;60384;48.152;11.614;2023-09-19T05:15:36;95457.94;;;18.87;58.50
72395;BME280;60384;48.152;11.614;2023-09-19T05:18:38;95461.19;;;18.89;58.78
72395;BME280;60384;48.152;11.614;2023-09-19T05:21:41;95416.81;;;18.63;58.82
72395;BME280;60384;48.152;11.614;2023-09-19T05:24:43;95463.09;;;18.88;58.84
72395;BME280;60384;48.152;11.614;2023-09-19T05:27:48;95474.22;;;18.92;58.51
72395;BME280;60384;48.152;11.614;2023-09-19T05:30:52;95474.22;;;18.92;58.68
72395;BME280;60384;48.152;11.614;2023-09-19T05:33:53;95475.38;;;18.96;58.47
72395;BME280;60384;48.152;11.614;2023-09-19T05:36:57;95476.09;;;18.91;58.21
72395;BME280;60384;48.152;11.614;2023-09-19T05:39:59;95473.88;;;18.88;58.36
72395;BME280;60384;48.152;11.614;2023-09-19T05:43:01;95478.47;;;18.88;58.91
72395;BME280;60384;48.152;11.614;2023-09-19T05:46:03;95495.13;;;18.85;58.85
72395;BME280;60384;48.152;11.614;2023-09-19T05:49:05;95447.78;;;18.60;58.72
72395;BME280;60384;48.152;11.614;2023-09-19T05:52:09;95490.78;;;18.84;58.31
72395;BME280;60384;48.152;11.614;2023-09-19T05:55:11;95420.22;;;18.30;58.80
72395;BME280;60384;48.152;11.614;2023-09-19T05:58:13;95457.06;;;18.53;58.67
72395;BME280;60384;48.152;11.614;2023-09-19T06:01:15;95502.56;;;18.78;58.60
72395;BME280;60384;48.152;11.614;2023-09-19T06:04:17;95496.94;;;18.79;58.69
72395;BME280;60384;48.152;11.614;2023-09-19T06:07:21;95504.28;;;18.84;58.83
72395;BME280;60384;48.152;11.614;2023-09-19T06:10:26;95502.75;;;18.88;58.81
72395;BME280;60384;48.152;11.614;2023-09-19T06:13:29;95508.81;;;18.95;58.66
72395;BME280;60384;48.152;11.614;2023-09-19T06:16:33;95503.00;;;19.03;58.39
72395;BME280;60384;48.152;11.614;2023-09-19T06:19:35;95495.81;;;19.08;57.91
72395;BME280;60384;48.152;11.614;2023-09-19T06:22:39;95483.75;;;18.99;57.82
72395;BME280;60384;48.152;11.614;2023-09-19T06:25:42;95488.53;;;19.09;57.82
72395;BME280;60384;48.152;11.614;2023-09-19T06:28:44;95450.00;;;18.80;57.73
72395;BME280;60384;48.152;11.614;2023-09-19T06:31:46;95517.41;;;19.25;58.15
72395;BME280;60384;48.152;11.614;2023-09-19T06:34:51;95515.66;;;19.36;57.97
72395;BME280;60384;48.152;11.614;2023-09-19T06:37:56;95507.56;;;19.36;57.52
72395;BME280;60384;48.152;11.614;2023-09-19T06:40:58;95518.94;;;19.38;57.57
72395;BME280;60384;48.152;11.614;2023-09-19T06:44:00;95519.44;;;19.35;57.93
72395;BME280;60384;48.152;11.614;2023-09-19T06:47:02;95521.88;;;19.36;57.57
72395;BME280;60384;48.152;11.614;2023-09-19T06:50:06;95528.34;;;19.35;57.77
72395;BME280;60384;48.152;11.614;2023-09-19T06:53:14;95516.09;;;19.28;57.64
72395;BME280;60384;48.152;11.614;2023-09-19T06:56:16;95533.59;;;19.42;57.80
72395;BME280;60384;48.152;11.614;2023-09-19T06:59:18;95539.91;;;19.48;57.79
72395;BME280;60384;48.152;11.614;2023-09-19T07:02:20;95540.25;;;19.51;57.47
72395;BME280;60384;48.152;11.614;2023-09-19T07:05:22;95520.53;;;19.51;57.36
72395;BME280;60384;48.152;11.614;2023-09-19T07:08:26;95530.25;;;19.68;57.62
72395;BME280;60384;48.152;11.614;2023-09-19T07:11:29;95546.84;;;19.77;57.46
72395;BME280;60384;48.152;11.614;2023-09-19T07:14:31;95490.88;;;19.56;57.22
72395;BME280;60384;48.152;11.614;2023-09-19T07:17:33;95548.13;;;19.91;57.04
72395;BME280;60384;48.152;11.614;2023-09-19T07:20:35;95554.66;;;19.95;56.90
72395;BME280;60384;48.152;11.614;2023-09-19T07:23:38;95555.00;;;19.99;56.88
72395;BME280;60384;48.152;11.614;2023-09-19T07:26:40;95565.72;;;19.94;56.75
72395;BME280;60384;48.152;11.614;2023-09-19T07:29:42;95564.34;;;19.91;57.41
72395;BME280;60384;48.152;11.614;2023-09-19T07:32:45;95562.44;;;19.92;57.06
72395;BME280;60384;48.152;11.614;2023-09-19T07:35:47;95569.00;;;19.96;57.41
72395;BME280;60384;48.152;11.614;2023-09-19T07:38:50;95566.28;;;19.96;57.03
72395;BME280;60384;48.152;11.614;2023-09-19T07:41:53;95551.78;;;20.02;56.68
72395;BME280;60384;48.152;11.614;2023-09-19T07:44:54;95559.47;;;20.10;56.68
72395;BME280;60384;48.152;11.614;2023-09-19T07:47:57;95556.91;;;20.20;56.44
72395;BME280;60384;48.152;11.614;2023-09-19T07:51:02;95561.50;;;20.20;56.83
72395;BME280;60384;48.152;11.614;2023-09-19T07:54:05;95560.22;;;20.27;56.30
72395;BME280;60384;48.152;11.614;2023-09-19T07:57:08;95569.94;;;20.23;56.55
72395;BME280;60384;48.152;11.614;2023-09-19T08:00:11;95566.91;;;20.20;56.90
72395;BME280;60384;48.152;11.614;2023-09-19T08:03:13;95567.16;;;20.18;57.01
72395;BME280;60384;48.152;11.614;2023-09-19T08:06:15;95569.66;;;20.25;57.04
72395;BME280;60384;48.152;11.614;2023-09-19T08:09:18;95552.34;;;20.26;56.47
72395;BME280;60384;48.152;11.614;2023-09-19T08:12:21;95573.03;;;20.54;56.33
72395;BME280;60384;48.152;11.614;2023-09-19T08:15:24;95570.19;;;20.65;56.42
72395;BME280;60384;48.152;11.614;2023-09-19T08:18:26;95573.28;;;20.74;56.01
72395;BME280;60384;48.152;11.614;2023-09-19T08:21:30;95572.97;;;20.70;56.36
72395;BME280;60384;48.152;11.614;2023-09-19T08:24:34;95580.81;;;20.72;55.98
72395;BME280;60384;48.152;11.614;2023-09-19T08:27:35;95574.84;;;20.70;55.83
72395;BME280;60384;48.152;11.614;2023-09-19T08:30:37;95572.38;;;20.68;56.05
72395;BME280;60384;48.152;11.614;2023-09-19T08:33:41;95571.25;;;20.64;56.51
72395;BME280;60384;48.152;11.614;2023-09-19T08:36:42;95580.25;;;20.70;55.93
72395;BME280;60384;48.152;11.614;2023-09-19T08:39:47;95562.00;;;20.60;56.68
72395;BME280;60384;48.152;11.614;2023-09-19T08:42:49;95580.00;;;20.71;56.37
72395;BME280;60384;48.152;11.614;2023-09-19T08:45:57;95572.19;;;20.75;55.93
72395;BME280;60384;48.152;11.614;2023-09-19T08:49:03;95570.34;;;20.80;55.90
72395;BME280;60384;48.152;11.614;2023-09-19T08:52:10;95572.38;;;20.90;55.82
72395;BME280;60384;48.152;11.614;2023-09-19T08:55:19;95575.66;;;20.97;55.25
72395;BME280;60384;48.152;11.614;2023-09-19T08:58:25;95582.00;;;21.08;55.04
72395;BME280;60384;48.152;11.614;2023-09-19T09:01:31;95539.06;;;20.90;54.92
72395;BME280;60384;48.152;11.614;2023-09-19T09:04:34;95587.88;;;21.22;55.07
72395;BME280;60384;48.152;11.614;2023-09-19T09:07:36;95575.75;;;21.29;54.65
72395;BME280;60384;48.152;11.614;2023-09-19T09:10:40;95585.09;;;21.43;54.74
72395;BME280;60384;48.152;11.614;2023-09-19T09:13:43;95582.13;;;21.45;54.46
72395;BME280;60384;48.152;11.614;2023-09-19T09:16:45;95588.25;;;21.35;54.21
72395;BME280;60384;48.152;11.614;2023-09-19T09:19:49;95548.47;;;21.14;54.27
72395;BME280;60384;48.152;11.614;2023-09-19T09:22:52;95579.34;;;21.40;54.33
72395;BME280;60384;48.152;11.614;2023-09-19T09:25:56;95589.69;;;21.43;54.11
72395;BME280;60384;48.152;11.614;2023-09-19T09:28:59;95573.47;;;21.48;54.27
72395;BME280;60384;48.152;11.614;2023-09-19T09:32:15;95583.56;;;21.58;54.05
72395;BME280;60384;48.152;11.614;2023-09-19T09:35:19;95580.94;;;21.68;54.00
72395;BME280;60384;48.152;11.614;2023-09-19T09:38:23;95575.38;;;21.85;53.25
72395;BME280;60384;48.152;11.614;2023-09-19T09:41:37;95574.56;;;21.89;53.28
72395;BME280;60384;48.152;11.614;2023-09-19T09:44:40;95586.53;;;21.93;53.08
72395;BME280;60384;48.152;11.614;2023-09-19T09:47:43;95590.38;;;21.97;53.01
72395;BME280;60384;48.152;11.614;2023-09-19T09:50:50;95594.13;;;21.91;52.72
72395;BME280;60384;48.152;11.614;2023-09-19T09:54:10;95589.50;;;21.92;52.55
72395;BME280;60384;48.152;11.614;2023-09-19T09:57:15;95552.28;;;21.77;52.49
72395;BME280;60384;48.152;11.614;2023-09-19T10:00:18;95585.31;;;22.11;52.44
72395;BME280;60384;48.152;11.614;2023-09-19T10:03:21;95587.31;;;22.21;52.06
72395;BME280;60384;48.152;11.614;2023-09-19T10:06:23;95582.13;;;22.24;51.64
72395;BME280;60384;48.152;11.614;2023-09-19T10:09:28;95589.50;;;22.29;51.39
72395;BME280;60384;48.152;11.614;2023-09-19T10:12:42;95572.91;;;22.20;51.36
72395;BME280;60384;48.152;11.614;2023-09-19T10:15:48;95569.38;;;22.20;51.60
72395;BME280;60384;48.152;11.614;2023-09-19T10:18:53;95585.47;;;22.36;51.19
72395;BME280;60384;48.152;11.614;2023-09-19T10:21:59;95587.44;;;22.51;51.24
72395;BME280;60384;48.152;11.614;2023-09-19T10:25:04;95569.56;;;22.55;50.97
72395;BME280;60384;48.152;11.614;2023-09-19T10:28:12;95577.56;;;22.87;50.59
72395;BME280;60384;48.152;11.614;2023-09-19T10:31:18;95583.84;;;23.08;50.12
72395;BME280;60384;48.152;11.614;2023-09-19T10:34:22;95580.34;;;23.17;49.51
72395;BME280;60384;48.152;11.614;2023-09-19T10:37:26;95567.56;;;23.23;49.85
72395;BME280;60384;48.152;11.614;2023-09-19T10:40:29;95578.47;;;23.43;49.54
72395;BME280;60384;48.152;11.614;2023-09-19T10:43:33;95603.25;;;23.62;49.20
72395;BME280;60384;48.152;11.614;2023-09-19T10:46:38;95595.34;;;23.56;49.02
72395;BME280;60384;48.152;11.614;2023-09-19T10:49:43;95592.56;;;23.30;49.27
72395;BME280;60384;48.152;11.614;2023-09-19T10:52:46;95592.00;;;23.18;49.49
72395;BME280;60384;48.152;11.614;2023-09-19T10:55:53;95511.72;;;22.60;49.69
72395;BME280;60384;48.152;11.614;2023-09-19T10:59:09;95590.66;;;23.20;49.27
72395;BME280;60384;48.152;11.614;2023-09-19T11:02:17;95590.97;;;23.44;49.13
72395;BME280;60384;48.152;11.614;2023-09-19T11:05:19;95582.31;;;23.63;48.96
72395;BME280;60384;48.152;11.614;2023-09-19T11:08:24;95595.91;;;23.78;48.81
72395;BME280;60384;48.152;11.614;2023-09-19T11:11:40;95589.88;;;24.11;48.33
72395;BME280;60384;48.152;11.614;2023-09-19T11:14:43;95562.94;;;24.25;47.93
72395;BME280;60384;48.152;11.614;2023-09-19T11:17:46;95589.84;;;24.37;47.85
72395;BME280;60384;48.152;11.614;2023-09-19T11:20:48;95582.66;;;24.71;47.56
72395;BME280;60384;48.152;11.614;2023-09-19T11:27:27;95574.03;;;26.68;45.04
72395;BME280;60384;48.152;11.614;2023-09-19T11:30:32;95574.19;;;27.38;43.03
72395;BME280;60384;48.152;11.614;2023-09-19T11:33:34;95571.47;;;27.89;42.37
72395;BME280;60384;48.152;11.614;2023-09-19T11:36:39;95536.00;;;27.98;41.96
72395;BME280;60384;48.152;11.614;2023-09-19T11:40:06;95571.22;;;28.05;42.18
72395;BME280;60384;48.152;11.614;2023-09-19T11:43:31;95572.47;;;27.61;42.21
72395;BME280;60384;48.152;11.614;2023-09-19T11:46:52;95572.78;;;27.22;43.29
72395;BME280;60384;48.152;11.614;2023-09-19T11:49:55;95570.06;;;27.22;43.36
72395;BME280;60384;48.152;11.614;2023-09-19T11:53:00;95557.28;;;27.17;43.53
72395;BME280;60384;48.152;11.614;2023-09-19T11:56:05;95586.59;;;27.12;43.27
72395;BME280;60384;48.152;11.614;2023-09-19T11:59:11;95588.25;;;26.65;43.46
72395;BME280;60384;48.152;11.614;2023-09-19T12:02:34;95578.28;;;26.26;43.71
72395;BME280;60384;48.152;11.614;2023-09-19T12:05:40;95574.59;;;26.41;43.49
72395;BME280;60384;48.152;11.614;2023-09-19T12:08:42;95570.78;;;26.66;43.10
72395;BME280;60384;48.152;11.614;2023-09-19T12:11:47;95559.13;;;26.03;42.43
72395;BME280;60384;48.152;11.614;2023-09-19T12:14:50;95581.00;;;26.26;42.28
72395;BME280;60384;48.152;11.614;2023-09-19T12:17:54;95576.56;;;26.36;41.96
72395;BME280;60384;48.152;11.614;2023-09-19T12:20:56;95566.13;;;26.14;42.14
72395;BME280;60384;48.152;11.614;2023-09-19T12:24:06;95437.59;;;25.29;42.52
72395;BME280;60384;48.152;11.614;2023-09-19T12:27:12;95573.31;;;25.76;43.08
72395;BME280;60384;48.152;11.614;2023-09-19T12:30:15;95572.81;;;25.30;43.48
72395;BME280;60384;48.152;11.614;2023-09-19T12:33:20;95571.88;;;25.05;44.15
72395;BME280;60384;48.152;11.614;2023-09-19T12:36:26;95565.00;;;25.91;43.00
72395;BME280;60384;48.152;11.614;2023-09-19T12:39:30;95562.72;;;26.99;41.29
72395;BME280;60384;48.152;11.614;2023-09-19T12:42:32;95550.31;;;26.63;41.63
72395;BME280;60384;48.152;11.614;2023-09-19T12:45:36;95550.16;;;26.26;42.35
72395;BME280;60384;48.152;11.614;2023-09-19T12:48:41;95517.59;;;27.01;41.36
72395;BME280;60384;48.152;11.614;2023-09-19T12:51:46;95550.28;;;27.62;40.43
72395;BME280;60384;48.152;11.614;2023-09-19T12:54:48;95561.44;;;28.72;39.40
72395;BME280;60384;48.152;11.614;2023-09-19T12:57:59;95552.25;;;29.67;37.57
72395;BME280;60384;48.152;11.614;2023-09-19T13:01:11;95541.41;;;30.86;36.55
72395;BME280;60384;48.152;11.614;2023-09-19T13:04:17;95551.63;;;30.94;36.26
72395;BME280;60384;48.152;11.614;2023-09-19T13:07:40;95551.84;;;30.58;37.42
72395;BME280;60384;48.152;11.614;2023-09-19T13:11:00;95550.66;;;30.20;38.46
72395;BME280;60384;48.152;11.614;2023-09-19T13:14:14;95568.25;;;28.75;39.17
72395;BME280;60384;48.152;11.614;2023-09-19T13:17:16;95557.53;;;27.72;40.47
72395;BME280;60384;48.152;11.614;2023-09-19T13:20:25;95521.81;;;27.63;40.38
72395;BME280;60384;48.152;11.614;2023-09-19T13:23:29;95548.28;;;28.14;40.25
72395;BME280;60384;48.152;11.614;2023-09-19T13:26:31;95548.09;;;29.20;38.47
72395;BME280;60384;48.152;11.614;2023-09-19T13:29:33;95540.09;;;29.10;38.62
72395;BME280;60384;48.152;11.614;2023-09-19T13:32:35;95508.63;;;29.88;37.99
72395;BME280;60384;48.152;11.614;2023-09-19T13:35:39;95526.00;;;30.37;37.49
72395;BME280;60384;48.152;11.614;2023-09-19T13:38:41;95523.41;;;30.71;36.90
72395;BME280;60384;48.152;11.614;2023-09-19T13:41:45;95516.00;;;30.89;36.66
72395;BME280;60384;48.152;11.614;2023-09-19T13:44:48;95484.34;;;30.52;36.86
72395;BME280;60384;48.152;11.614;2023-09-19T13:47:50;95527.81;;;30.42;37.53
72395;BME280;60384;48.152;11.614;2023-09-19T13:50:54;95527.84;;;29.88;37.49
72395;BME280;60384;48.152;11.614;2023-09-19T13:53:56;95505.38;;;29.86;37.88
72395;BME280;60384;48.152;11.614;2023-09-19T13:56:58;95507.00;;;29.65;37.72
72395;BME280;60384;48.152;11.614;2023-09-19T14:00:01;95515.75;;;29.45;38.28
72395;BME280;60384;48.152;11.614;2023-09-19T14:03:12;95497.34;;;29.67;37.70
72395;BME280;60384;48.152;11.614;2023-09-19T14:06:16;95495.44;;;29.77;37.60
72395;BME280;60384;48.152;11.614;2023-09-19T14:09:17;95512.00;;;30.16;37.08
72395;BME280;60384;48.152;11.614;2023-09-19T14:12:20;95512.75;;;29.99;36.76
72395;BME280;60384;48.152;11.614;2023-09-19T14:15:22;95506.94;;;29.79;36.13
72395;BME280;60384;48.152;11.614;2023-09-19T14:18:29;95515.84;;;29.84;36.23
72395;BME280;60384;48.152;11.614;2023-09-19T14:21:33;95488.88;;;29.55;36.48
72395;BME280;60384;48.152;11.614;2023-09-19T14:24:36;95459.66;;;29.15;36.54
72395;BME280;60384;48.152;11.614;2023-09-19T14:27:38;95523.66;;;29.46;36.86
72395;BME280;60384;48.152;11.614;2023-09-19T14:30:40;95491.31;;;29.21;36.01
72395;BME280;60384;48.152;11.614;2023-09-19T14:33:42;95501.28;;;29.17;36.64
72395;BME280;60384;48.152;11.614;2023-09-19T14:36:46;95501.09;;;29.13;37.04
72395;BME280;60384;48.152;11.614;2023-09-19T14:39:49;95500.53;;;28.89;36.99
72395;BME280;60384;48.152;11.614;2023-09-19T14:42:51;95498.91;;;28.74;36.65
72395;BME280;60384;48.152;11.614;2023-09-19T14:45:53;95498.34;;;28.63;37.42
72395;BME280;60384;48.152;11.614;2023-09-19T14:48:56;95470.03;;;28.41;37.09
72395;BME280;60384;48.152;11.614;2023-09-19T14:52:01;95493.78;;;28.45;37.01
72395;BME280;60384;48.152;11.614;2023-09-19T14:55:05;95476.84;;;28.29;37.64
72395;BME280;60384;48.152;11.614;2023-09-19T14:58:09;95485.63;;;28.13;37.42
72395;BME280;60384;48.152;11.614;2023-09-19T15:01:12;95480.63;;;27.87;37.55
72395;BME280;60384;48.152;11.614;2023-09-19T15:04:14;95478.47;;;27.57;38.14
72395;BME280;60384;48.152;11.614;2023-09-19T15:07:17;95454.13;;;27.04;38.68
72395;BME280;60384;48.152;11.614;2023-09-19T15:10:20;95463.84;;;26.91;39.07
72395;BME280;60384;48.152;11.614;2023-09-19T15:13:22;95469.97;;;26.65;39.43
72395;BME280;60384;48.152;11.614;2023-09-19T15:16:29;95483.75;;;26.54;39.63
72395;BME280;60384;48.152;11.614;2023-09-19T15:19:31;95481.59;;;26.33;39.88
72395;BME280;60384;48.152;11.614;2023-09-19T15:22:34;95485.28;;;26.18;39.88
72395;BME280;60384;48.152;11.614;2023-09-19T15:25:36;95435.56;;;25.73;39.63
72395;BME280;60384;48.152;11.614;2023-09-19T15:28:38;95487.84;;;25.80;39.94
72395;BME280;60384;48.152;11.614;2023-09-19T15:31:40;95474.66;;;25.64;39.84
72395;BME280;60384;48.152;11.614;2023-09-19T15:34:42;95466.59;;;25.48;40.36
72395;BME280;60384;48.152;11.614;2023-09-19T15:37:46;95467.41;;;25.49;40.51
72395;BME280;60384;48.152;11.614;2023-09-19T15:40:48;95487.00;;;25.56;40.23
72395;BME280;60384;48.152;11.614;2023-09-19T15:43:50;95473.97;;;25.48;39.95
72395;BME280;60384;48.152;11.614;2023-09-19T15:46:52;95473.25;;;25.37;40.74
72395;BME280;60384;48.152;11.614;2023-09-19T15:49:54;95458.69;;;25.18;40.41
72395;BME280;60384;48.152;11.614;2023-09-19T15:52:57;95480.47;;;25.23;40.80
72395;BME280;60384;48.152;11.614;2023-09-19T15:56:05;95454.47;;;25.02;40.39
72395;BME280;60384;48.152;11.614;2023-09-19T15:59:08;95442.34;;;24.79;40.07
72395;BME280;60384;48.152;11.614;2023-09-19T16:02:12;95442.44;;;24.64;40.11
72395;BME280;60384;48.152;11.614;2023-09-19T16:05:14;95487.00;;;24.78;40.09
72395;BME280;60384;48.152;11.614;2023-09-19T16:08:17;95482.41;;;24.73;40.60
72395;BME280;60384;48.152;11.614;2023-09-19T16:11:19;95389.66;;;24.05;40.57